createdAt,value
2022-08-26T00:00:13.540Z,14.95
2022-08-26T00:05:27.570Z,16.10
2022-08-26T00:10:44.921Z,16.17
2022-08-26T00:15:51.833Z,16.00
2022-08-26T00:20:57.198Z,15.30
2022-08-26T00:26:06.841Z,15.15
2022-08-26T00:31:18.613Z,14.18
2022-08-26T00:36:38.177Z,14.25
2022-08-26T00:41:45.145Z,14.23
2022-08-26T00:46:54.191Z,14.50
2022-08-26T00:52:02.935Z,15.05
2022-08-26T00:57:27.377Z,14.87
2022-08-26T01:02:35.911Z,15.83
2022-08-26T01:07:42.924Z,14.80
2022-08-26T01:13:00.203Z,14.18
2022-08-26T01:18:16.481Z,13.08
2022-08-26T01:23:36.515Z,12.98
2022-08-26T01:28:51.485Z,14.40
2022-08-26T01:34:09.919Z,13.68
2022-08-26T01:39:40.233Z,12.93
2022-08-26T01:44:57.176Z,13.45
2022-08-26T01:50:08.244Z,13.97
2022-08-26T01:55:39.694Z,13.70
2022-08-26T02:01:13.395Z,14.55
2022-08-26T02:06:34.731Z,12.60
2022-08-26T02:11:49.048Z,12.73
2022-08-26T02:17:16.748Z,13.47
2022-08-26T02:22:28.635Z,12.70
2022-08-26T02:27:53.431Z,11.97
2022-08-26T02:33:06.205Z,13.20
2022-08-26T02:38:43.146Z,12.40
2022-08-26T02:44:13.214Z,11.57
2022-08-26T02:49:20.763Z,12.37
2022-08-26T02:54:41.554Z,12.07
2022-08-26T03:00:23.976Z,13.57
2022-08-26T03:05:37.995Z,13.10
2022-08-26T03:22:33.654Z,10.90
2022-08-26T03:27:42.997Z,10.93
2022-08-26T03:33:12.395Z,11.57
2022-08-26T03:39:03.624Z,11.07
2022-08-26T03:44:15.383Z,12.00
2022-08-26T03:54:57.605Z,11.20
2022-08-26T04:00:18.498Z,9.80
2022-08-26T04:05:36.489Z,10.80
2022-08-26T04:10:47.112Z,10.03
2022-08-26T04:16:05.734Z,9.80
2022-08-26T04:21:36.691Z,10.10
2022-08-26T04:27:17.616Z,11.27
2022-08-26T04:32:29.983Z,9.93
2022-08-26T04:37:37.091Z,10.40
2022-08-26T04:42:50.899Z,10.47
2022-08-26T04:54:07.059Z,10.88
2022-08-26T04:59:39.564Z,10.10
2022-08-26T05:28:48.137Z,8.90
2022-08-26T05:34:10.979Z,8.77
2022-08-26T05:45:36.647Z,7.73
2022-08-26T05:56:48.014Z,7.33
2022-08-26T06:01:58.745Z,7.63
2022-08-26T06:07:15.489Z,7.17
2022-08-26T06:12:40.060Z,7.83
2022-08-26T06:17:46.879Z,7.70
2022-08-26T06:23:17.838Z,8.00
2022-08-26T06:28:24.769Z,7.80
2022-08-26T06:33:31.655Z,7.22
2022-08-26T06:38:37.598Z,6.57
2022-08-26T06:43:44.645Z,6.50
2022-08-26T06:48:50.339Z,6.22
2022-08-26T06:53:59.409Z,7.20
2022-08-26T06:59:07.609Z,5.75
2022-08-26T07:04:22.126Z,5.33
2022-08-26T07:09:27.926Z,5.20
2022-08-26T07:14:34.734Z,5.37
2022-08-26T07:19:41.430Z,5.10
2022-08-26T07:24:46.755Z,5.28
2022-08-26T07:29:57.038Z,5.60
2022-08-26T07:35:06.350Z,4.83
2022-08-26T07:40:13.431Z,5.05
2022-08-26T07:45:20.590Z,4.70
2022-08-26T07:50:49.572Z,5.30
2022-08-26T07:55:39.114Z,4.67
2022-08-26T08:01:06.817Z,4.10
2022-08-26T08:06:15.446Z,4.33
2022-08-26T08:11:22.576Z,4.80
2022-08-26T08:16:32.207Z,4.40
2022-08-26T08:21:36.899Z,5.05
2022-08-26T08:26:42.599Z,5.30
2022-08-26T08:31:58.502Z,4.62
2022-08-26T08:36:57.487Z,4.58
2022-08-26T08:42:34.797Z,3.62
2022-08-26T08:47:47.594Z,3.47
2022-08-26T08:53:09.041Z,3.75
2022-08-26T08:58:19.133Z,4.10
2022-08-26T09:03:45.602Z,3.60
2022-08-26T09:08:56.763Z,3.65
2022-08-26T09:14:03.766Z,4.00
2022-08-26T09:19:23.281Z,4.12
2022-08-26T09:24:31.144Z,3.90
2022-08-26T09:29:50.462Z,4.30
2022-08-26T09:35:23.753Z,4.25
2022-08-26T09:40:37.283Z,4.08
2022-08-26T09:45:54.975Z,3.47
2022-08-26T09:51:01.367Z,3.87
2022-08-26T09:56:19.298Z,4.42
2022-08-26T10:01:32.898Z,3.55
2022-08-26T10:06:41.525Z,3.50
2022-08-26T10:11:56.147Z,3.90
2022-08-26T10:17:31.718Z,3.70
2022-08-26T10:22:39.923Z,3.98
2022-08-26T10:27:55.201Z,3.52
2022-08-26T10:33:03.594Z,5.35
2022-08-26T10:38:14.641Z,4.53
2022-08-26T10:43:34.453Z,3.72
2022-08-26T10:48:45.719Z,4.65
2022-08-26T10:54:14.750Z,3.35
2022-08-26T10:59:23.044Z,2.98
2022-08-26T11:04:50.778Z,3.15
2022-08-26T11:09:56.980Z,2.95
2022-08-26T11:15:24.644Z,3.33
2022-08-26T11:20:47.335Z,3.22
2022-08-26T11:26:01.932Z,2.90
2022-08-26T11:31:10.676Z,3.17
2022-08-26T11:36:50.331Z,3.33
2022-08-26T11:42:00.266Z,2.90
2022-08-26T11:47:07.853Z,3.52
2022-08-26T11:52:22.989Z,2.75
2022-08-26T11:57:30.257Z,3.33
2022-08-26T12:02:35.612Z,3.37
2022-08-26T12:07:42.659Z,3.35
2022-08-26T12:12:51.140Z,3.27
2022-08-26T12:17:56.497Z,3.10
2022-08-26T12:23:02.817Z,3.40
2022-08-26T12:28:08.585Z,2.77
2022-08-26T12:33:22.957Z,3.22
2022-08-26T12:38:25.116Z,2.70
2022-08-26T12:43:42.617Z,2.92
2022-08-26T12:48:50.628Z,3.00
2022-08-26T12:53:56.379Z,3.02
2022-08-26T12:59:13.420Z,2.62
2022-08-26T13:04:36.279Z,2.92
2022-08-26T13:09:42.090Z,3.00
2022-08-26T13:14:48.559Z,2.95
2022-08-26T13:19:53.990Z,2.70
2022-08-26T13:24:59.420Z,3.25
2022-08-26T13:30:05.326Z,2.80
2022-08-26T13:35:12.691Z,3.02
2022-08-26T13:40:18.165Z,3.00
2022-08-26T13:45:23.582Z,2.72
2022-08-26T13:50:28.895Z,2.70
2022-08-26T13:55:49.513Z,2.92
2022-08-26T14:00:57.022Z,3.90
2022-08-26T14:06:02.396Z,2.95
2022-08-26T14:11:08.640Z,2.72
2022-08-26T14:16:25.808Z,2.80
2022-08-26T14:21:33.640Z,2.98
2022-08-26T14:26:39.159Z,2.87
2022-08-26T14:31:50.273Z,3.85
2022-08-26T14:36:55.648Z,3.17
2022-08-26T14:42:01.660Z,2.70
2022-08-26T14:47:07.537Z,2.60
2022-08-26T14:52:14.080Z,4.00
2022-08-26T14:57:19.489Z,3.08
2022-08-26T15:02:40.178Z,3.33
2022-08-26T15:07:32.207Z,2.70
2022-08-26T15:12:39.326Z,3.40
2022-08-26T15:17:44.845Z,3.10
2022-08-26T15:22:50.867Z,3.05
2022-08-26T15:27:59.502Z,3.35
2022-08-26T15:33:14.874Z,3.35
2022-08-26T15:38:14.613Z,3.37
2022-08-26T15:43:28.649Z,3.27
2022-08-26T15:48:28.947Z,2.67
2022-08-26T15:53:36.757Z,2.80
2022-08-26T15:58:42.785Z,2.85
2022-08-26T16:03:52.249Z,3.00
2022-08-26T16:08:59.164Z,2.92
2022-08-26T16:14:07.831Z,3.00
2022-08-26T16:19:13.502Z,3.05
2022-08-26T16:24:25.912Z,3.08
2022-08-26T16:29:29.713Z,2.90
2022-08-26T16:34:36.298Z,3.60
2022-08-26T16:39:45.173Z,4.20
2022-08-26T16:44:48.770Z,4.55
2022-08-26T16:49:54.109Z,21.55
2022-08-26T16:55:00.049Z,4.17
2022-08-26T17:00:09.907Z,4.12
2022-08-26T17:05:15.769Z,5.00
2022-08-26T17:10:21.822Z,4.08
2022-08-26T17:15:27.280Z,4.72
2022-08-26T17:20:32.712Z,5.08
2022-08-26T17:25:38.819Z,4.67
2022-08-26T17:30:44.763Z,4.80
2022-08-26T17:35:50.160Z,5.42
2022-08-26T17:40:56.490Z,6.20
2022-08-26T17:46:06.607Z,7.08
2022-08-26T17:51:17.292Z,5.40
2022-08-26T17:56:25.703Z,4.28
2022-08-26T18:01:31.120Z,3.95
2022-08-26T18:06:38.557Z,5.35
2022-08-26T18:11:43.948Z,5.97
2022-08-26T18:16:49.826Z,6.08
2022-08-26T18:22:01.114Z,5.97
2022-08-26T18:27:06.617Z,6.20
2022-08-26T18:32:11.888Z,7.90
2022-08-26T18:37:17.327Z,7.78
2022-08-26T18:42:23.974Z,8.80
2022-08-26T18:47:30.435Z,8.53
2022-08-26T18:52:35.910Z,9.23
2022-08-26T18:57:41.879Z,8.35
2022-08-26T19:03:01.878Z,8.53
2022-08-26T19:08:08.585Z,7.60
2022-08-26T19:13:14.132Z,7.60
2022-08-26T19:18:21.480Z,7.30
2022-08-26T19:23:31.826Z,7.40
2022-08-26T19:28:34.676Z,7.97
2022-08-26T19:33:45.599Z,6.70
2022-08-26T19:38:52.061Z,6.40
2022-08-26T19:43:59.012Z,6.83
2022-08-26T19:49:04.323Z,7.78
2022-08-26T19:54:10.573Z,7.35
2022-08-26T19:59:15.896Z,7.08
2022-08-26T20:04:21.225Z,7.90
2022-08-26T20:09:26.596Z,9.68
2022-08-26T20:14:31.972Z,11.05
2022-08-26T20:19:55.332Z,11.18
2022-08-26T20:25:00.690Z,11.70
2022-08-26T20:30:08.152Z,11.33
2022-08-26T20:35:15.412Z,11.63
2022-08-26T20:40:21.580Z,10.37
2022-08-26T20:45:27.126Z,9.58
2022-08-26T20:50:33.434Z,9.40
2022-08-26T20:55:39.307Z,9.88
2022-08-26T21:00:44.763Z,9.37
2022-08-26T21:05:50.664Z,9.23
2022-08-26T21:10:56.251Z,9.95
2022-08-26T21:16:01.632Z,8.57
2022-08-26T21:21:09.002Z,8.65
2022-08-26T21:26:16.005Z,8.07
2022-08-26T21:31:24.296Z,8.38
2022-08-26T21:36:29.664Z,8.63
2022-08-26T21:41:35.127Z,9.63
2022-08-26T21:46:40.770Z,9.03
2022-08-26T21:51:48.722Z,8.70
2022-08-26T21:56:54.151Z,9.80
2022-08-26T22:02:00.534Z,8.47
2022-08-26T22:07:06.159Z,9.10
2022-08-26T22:12:12.852Z,8.80
2022-08-26T22:17:18.258Z,9.23
2022-08-26T22:22:23.596Z,9.10
2022-08-26T22:27:29.035Z,9.77
2022-08-26T22:32:35.520Z,10.77
2022-08-26T22:37:41.576Z,10.77
2022-08-26T22:42:55.574Z,11.13
2022-08-26T22:47:54.010Z,10.10
2022-08-26T22:52:59.777Z,10.33
2022-08-26T22:58:06.989Z,9.83
2022-08-26T23:03:12.768Z,10.27
2022-08-26T23:08:18.272Z,9.87
2022-08-26T23:13:32.498Z,9.70
2022-08-26T23:18:38.717Z,10.37
2022-08-26T23:23:46.374Z,10.83
2022-08-26T23:28:51.740Z,11.03
2022-08-26T23:34:14.899Z,11.03
2022-08-26T23:39:20.357Z,10.30
2022-08-26T23:44:26.874Z,9.70
2022-08-26T23:49:32.972Z,9.30
2022-08-26T23:54:40.026Z,8.77
2022-08-26T23:59:48.799Z,9.63
